Time;durP1;ratioP1;P1;durP2;ratioP2;P2;SDS_P1;SDS_P2;PMS_P1;PMS_P2;Temp;Humidity;BMP_temperature;BMP_pressure;BME280_temperature;BME280_humidity;BME280_pressure;Samples;Min_cycle;Max_cycle;Signal;HPM_P1;HPM_P2
2021/08/13 04:01:06;;;;;;;15.40;14.30;;;17.30;99.90;;;;;;5628992;23;20519;-72
2021/08/13 04:03:33;;;;;;;15.60;14.40;;;17.40;99.90;;;;;;4906557;29;20526;-71
2021/08/13 04:06:00;;;;;;;16.10;14.60;;;17.40;99.90;;;;;;4898474;29;20488;-71
2021/08/13 04:08:26;;;;;;;15.93;14.50;;;17.30;99.90;;;;;;4898659;29;20515;-71
2021/08/13 04:10:53;;;;;;;14.87;13.67;;;17.30;99.90;;;;;;4897585;29;20549;-71
2021/08/13 04:13:20;;;;;;;15.83;14.60;;;17.30;99.90;;;;;;4903535;29;20862;-71
2021/08/13 04:15:46;;;;;;;17.57;16.17;;;17.30;99.90;;;;;;4916238;29;20467;-71
2021/08/13 04:18:15;;;;;;;16.30;14.90;;;17.30;99.90;;;;;;4906869;29;20467;-70
2021/08/13 04:20:41;;;;;;;16.30;15.00;;;17.30;99.90;;;;;;4897621;29;20483;-71
2021/08/13 04:23:08;;;;;;;16.13;14.63;;;17.30;99.90;;;;;;4897161;29;20479;-70
2021/08/13 04:25:34;;;;;;;16.90;15.40;;;17.30;99.90;;;;;;4914734;29;20486;-71
2021/08/13 04:28:01;;;;;;;15.90;14.47;;;17.30;99.90;;;;;;4898882;29;20466;-71
2021/08/13 04:30:28;;;;;;;19.07;16.53;;;17.30;99.90;;;;;;4912995;29;20486;-72
2021/08/13 04:32:55;;;;;;;16.83;15.33;;;17.30;99.90;;;;;;4915685;29;20463;-72
2021/08/13 04:35:23;;;;;;;16.63;15.30;;;17.30;99.90;;;;;;4915607;29;20462;-72
2021/08/13 04:37:49;;;;;;;16.60;15.10;;;17.30;99.90;;;;;;4916339;29;20478;-70
2021/08/13 04:40:16;;;;;;;17.40;15.83;;;17.30;99.90;;;;;;4915439;29;20473;-71
2021/08/13 04:42:43;;;;;;;17.43;15.80;;;17.30;99.90;;;;;;4913896;29;20467;-71
2021/08/13 04:45:11;;;;;;;16.40;15.00;;;17.30;99.90;;;;;;4912888;29;20482;-71
2021/08/13 04:47:37;;;;;;;16.90;15.50;;;17.40;99.90;;;;;;4901045;29;20485;-71
2021/08/13 04:50:05;;;;;;;16.20;14.60;;;17.60;99.90;;;;;;4912928;29;20525;-71
2021/08/13 04:52:33;;;;;;;14.57;13.27;;;17.80;99.90;;;;;;4913499;29;20486;-71
2021/08/13 04:54:59;;;;;;;14.50;13.10;;;18.10;99.90;;;;;;4913702;29;20463;-70
2021/08/13 04:57:27;;;;;;;13.50;12.50;;;18.30;99.90;;;;;;4909460;29;20686;-71
2021/08/13 04:59:53;;;;;;;14.33;12.83;;;18.50;99.90;;;;;;4915373;29;20478;-70
2021/08/13 05:02:23;;;;;;;12.30;11.50;;;18.80;99.90;;;;;;4914891;29;20505;-69
2021/08/13 05:04:58;;;;;;;13.30;12.30;;;19.00;99.90;;;;;;4915293;29;20554;-69
2021/08/13 05:07:25;;;;;;;12.13;11.33;;;19.00;99.90;;;;;;4912375;29;20497;-69
2021/08/13 05:09:53;;;;;;;13.67;12.53;;;19.00;99.90;;;;;;4915056;29;20463;-70
2021/08/13 05:12:19;;;;;;;14.40;13.23;;;19.10;99.90;;;;;;4914995;29;20494;-71
2021/08/13 05:14:46;;;;;;;14.70;13.60;;;19.00;99.90;;;;;;4915239;29;20993;-71
2021/08/13 05:17:13;;;;;;;14.20;12.90;;;18.80;99.90;;;;;;4901521;29;20563;-71
2021/08/13 05:19:39;;;;;;;17.20;13.00;;;18.70;99.90;;;;;;4909449;29;20482;-72
2021/08/13 05:22:09;;;;;;;15.23;14.00;;;18.70;99.90;;;;;;4913440;29;20554;-71
2021/08/13 05:24:36;;;;;;;13.80;12.73;;;18.70;99.90;;;;;;4913458;29;20474;-71
2021/08/13 05:27:04;;;;;;;15.97;14.50;;;18.70;99.90;;;;;;4907910;29;20570;-69
2021/08/13 05:29:31;;;;;;;13.40;12.40;;;18.70;99.90;;;;;;4911345;29;20518;-70
2021/08/13 05:31:58;;;;;;;14.67;13.43;;;18.70;99.90;;;;;;4918686;29;20844;-71
2021/08/13 05:34:24;;;;;;;15.27;13.97;;;18.70;99.90;;;;;;4918188;29;20538;-70
2021/08/13 05:36:51;;;;;;;14.10;13.00;;;18.70;99.90;;;;;;4910987;29;20467;-71
2021/08/13 05:39:17;;;;;;;16.57;15.07;;;18.70;99.90;;;;;;4914935;29;20473;-70
2021/08/13 05:41:44;;;;;;;14.83;13.53;;;18.90;99.90;;;;;;4913140;29;20546;-69
2021/08/13 05:44:12;;;;;;;15.50;14.20;;;18.90;99.90;;;;;;4908866;29;20471;-69
2021/08/13 05:46:39;;;;;;;15.97;14.67;;;18.90;99.90;;;;;;4899997;29;20502;-71
2021/08/13 05:49:05;;;;;;;15.40;14.20;;;18.90;99.90;;;;;;4899735;29;20475;-69
2021/08/13 05:51:32;;;;;;;15.43;14.13;;;18.90;99.90;;;;;;4910883;29;20490;-69
2021/08/13 05:53:59;;;;;;;14.40;13.20;;;19.00;99.90;;;;;;4917931;29;20474;-69
2021/08/13 05:56:26;;;;;;;15.47;14.27;;;19.10;99.90;;;;;;4919058;29;20911;-70
2021/08/13 05:58:53;;;;;;;15.40;14.20;;;19.20;99.90;;;;;;4918481;29;20489;-69
2021/08/13 06:01:21;;;;;;;14.90;13.67;;;19.30;99.90;;;;;;4918653;29;20521;-70
2021/08/13 06:03:48;;;;;;;15.90;14.40;;;19.40;99.90;;;;;;4917054;29;20876;-70
2021/08/13 06:06:14;;;;;;;14.87;13.60;;;19.50;99.90;;;;;;4905957;29;20491;-70
2021/08/13 06:08:41;;;;;;;11.60;10.80;;;19.60;99.90;;;;;;4899013;29;20559;-70
2021/08/13 06:11:07;;;;;;;11.67;10.67;;;20.30;99.90;;;;;;4899738;29;20517;-69
2021/08/13 06:13:34;;;;;;;11.20;10.40;;;21.30;99.90;;;;;;4899348;29;20490;-70
2021/08/13 06:16:01;;;;;;;9.93;9.30;;;22.20;99.90;;;;;;4915764;29;20951;-70
2021/08/13 06:18:29;;;;;;;11.57;10.30;;;23.10;99.90;;;;;;4918084;29;20561;-70
2021/08/13 06:20:55;;;;;;;10.47;9.77;;;23.80;99.90;;;;;;4916622;29;20552;-70
2021/08/13 06:23:22;;;;;;;9.17;8.67;;;24.30;99.90;;;;;;4916967;29;20523;-70
2021/08/13 06:25:49;;;;;;;9.30;8.57;;;24.50;99.90;;;;;;4917700;29;20514;-70
2021/08/13 06:28:15;;;;;;;9.10;8.70;;;25.00;99.90;;;;;;4917867;29;20477;-70
2021/08/13 06:30:42;;;;;;;9.17;8.67;;;25.20;99.90;;;;;;4917945;29;20502;-70
2021/08/13 06:33:09;;;;;;;9.37;8.50;;;25.60;99.90;;;;;;4917867;29;20480;-70
2021/08/13 06:35:37;;;;;;;8.20;7.73;;;25.90;99.90;;;;;;4917603;29;20515;-70
2021/08/13 06:38:04;;;;;;;8.70;8.10;;;25.80;99.90;;;;;;4914077;29;20488;-70
2021/08/13 06:40:33;;;;;;;8.07;7.67;;;26.10;99.90;;;;;;4916265;29;20496;-70
2021/08/13 06:42:59;;;;;;;8.17;7.83;;;26.80;99.90;;;;;;4917754;29;20488;-70
2021/08/13 06:45:27;;;;;;;7.87;7.47;;;27.40;99.90;;;;;;4917229;29;20536;-71
2021/08/13 06:47:54;;;;;;;7.13;6.83;;;27.80;99.90;;;;;;4918074;29;20472;-70
2021/08/13 06:50:21;;;;;;;8.10;7.60;;;28.30;99.90;;;;;;4917175;29;20466;-71
2021/08/13 06:52:49;;;;;;;8.13;7.53;;;28.00;99.90;;;;;;4917805;29;20486;-71
2021/08/13 06:55:16;;;;;;;7.40;6.90;;;28.30;99.90;;;;;;4917560;29;20470;-71
2021/08/13 06:57:43;;;;;;;6.53;6.23;;;28.70;99.90;;;;;;4918709;29;20538;-70
2021/08/13 07:00:12;;;;;;;6.90;6.60;;;29.00;99.90;;;;;;4917737;29;20464;-71
2021/08/13 07:02:38;;;;;;;7.30;7.00;;;29.30;99.90;;;;;;4917535;29;20478;-71
2021/08/13 07:05:06;;;;;;;7.10;6.80;;;29.70;99.90;;;;;;4917704;29;20498;-71
2021/08/13 07:07:33;;;;;;;6.97;6.67;;;30.00;99.90;;;;;;4917088;29;20868;-68
2021/08/13 07:10:04;;;;;;;7.03;6.73;;;30.30;99.90;;;;;;4916777;29;20522;-69
2021/08/13 07:12:31;;;;;;;7.03;6.70;;;30.30;99.90;;;;;;4917836;29;20491;-68
2021/08/13 07:14:58;;;;;;;6.67;6.27;;;30.00;99.90;;;;;;4917257;29;20565;-70
2021/08/13 07:17:24;;;;;;;7.50;7.10;;;30.00;99.90;;;;;;4917262;29;20570;-70
2021/08/13 07:19:51;;;;;;;5.93;5.73;;;30.20;99.90;;;;;;4917147;29;20613;-69
2021/08/13 07:22:18;;;;;;;5.70;5.50;;;30.10;99.90;;;;;;4916813;29;20493;-68
2021/08/13 07:24:44;;;;;;;6.40;6.10;;;29.70;99.90;;;;;;4916465;29;20478;-70
2021/08/13 07:27:12;;;;;;;7.27;6.83;;;29.10;99.90;;;;;;4902680;29;20500;-70
2021/08/13 07:29:39;;;;;;;6.47;6.17;;;28.90;99.90;;;;;;4897841;29;20478;-70
2021/08/13 07:32:06;;;;;;;5.77;5.47;;;29.00;99.90;;;;;;4907060;29;20489;-69
2021/08/13 07:34:33;;;;;;;6.07;5.77;;;29.30;99.90;;;;;;4916423;29;20466;-69
2021/08/13 07:36:59;;;;;;;6.57;6.27;;;29.70;99.90;;;;;;4916655;29;20466;-70
2021/08/13 07:39:26;;;;;;;7.00;6.50;;;29.50;99.90;;;;;;4916265;29;20486;-70
2021/08/13 07:41:53;;;;;;;7.00;6.60;;;29.10;99.90;;;;;;4917123;29;20559;-70
2021/08/13 07:44:21;;;;;;;6.20;5.90;;;28.50;99.90;;;;;;4916224;29;20479;-70
2021/08/13 07:46:47;;;;;;;7.33;6.87;;;27.90;99.90;;;;;;4916894;29;20497;-70
2021/08/13 07:49:14;;;;;;;7.17;6.87;;;27.80;99.90;;;;;;4915739;29;20889;-69
2021/08/13 07:51:41;;;;;;;7.10;6.47;;;27.60;99.90;;;;;;4915982;29;20621;-70
2021/08/13 07:54:07;;;;;;;6.77;6.47;;;27.30;99.90;;;;;;4915304;29;20698;-71
2021/08/13 07:56:34;;;;;;;6.77;6.37;;;27.00;99.90;;;;;;4916494;29;20541;-71
2021/08/13 07:59:01;;;;;;;7.20;6.73;;;26.70;99.90;;;;;;4916532;29;20478;-71
2021/08/13 08:01:29;;;;;;;6.43;6.03;;;26.30;99.90;;;;;;4916534;29;20568;-70
2021/08/13 08:03:55;;;;;;;7.93;6.57;;;26.10;99.90;;;;;;4915551;29;20473;-69
2021/08/13 08:06:22;;;;;;;6.97;6.57;;;26.00;99.90;;;;;;4902809;29;20499;-71
2021/08/13 08:08:49;;;;;;;6.97;6.47;;;26.00;99.90;;;;;;4914874;29;20466;-71
2021/08/13 08:11:15;;;;;;;8.13;7.60;;;26.00;99.90;;;;;;4916294;29;20502;-71
2021/08/13 08:13:42;;;;;;;6.73;6.40;;;25.90;99.90;;;;;;4916248;29;20518;-70
2021/08/13 08:16:08;;;;;;;6.57;6.23;;;25.80;99.90;;;;;;4915725;29;20462;-71
2021/08/13 08:18:36;;;;;;;7.70;7.20;;;25.80;99.90;;;;;;4915307;29;20493;-70
2021/08/13 08:21:03;;;;;;;6.90;6.37;;;25.70;99.90;;;;;;4915994;29;20486;-71
2021/08/13 08:23:30;;;;;;;7.07;6.57;;;25.70;99.90;;;;;;4915719;29;20858;-71
2021/08/13 08:25:56;;;;;;;7.47;6.97;;;25.70;99.90;;;;;;4916299;29;20470;-69
2021/08/13 08:28:23;;;;;;;7.70;7.13;;;25.60;99.90;;;;;;4916232;29;20577;-68
2021/08/13 08:30:50;;;;;;;7.70;7.10;;;25.50;99.90;;;;;;4915810;29;20478;-69
2021/08/13 08:33:16;;;;;;;8.40;7.57;;;25.50;99.90;;;;;;4915260;29;20480;-69
2021/08/13 08:35:45;;;;;;;8.37;7.60;;;25.60;99.90;;;;;;4915453;29;20483;-68
2021/08/13 08:38:11;;;;;;;7.40;7.00;;;25.60;99.90;;;;;;4915652;29;20557;-68
2021/08/13 08:40:39;;;;;;;7.50;6.90;;;25.50;99.90;;;;;;4915938;29;20486;-68
2021/08/13 08:43:08;;;;;;;7.73;7.23;;;25.60;99.90;;;;;;4915714;29;20474;-67
2021/08/13 08:45:37;;;;;;;7.83;7.13;;;25.60;99.90;;;;;;4916085;29;20831;-68
2021/08/13 08:48:05;;;;;;;7.97;7.47;;;25.60;99.90;;;;;;4915724;29;20554;-68
2021/08/13 08:50:34;;;;;;;10.33;8.10;;;25.60;99.90;;;;;;4915515;29;20551;-67
2021/08/13 08:53:04;;;;;;;8.30;7.57;;;25.70;99.90;;;;;;4915805;29;20474;-68
2021/08/13 08:55:32;;;;;;;8.80;7.90;;;25.80;99.90;;;;;;4914973;29;20986;-68
2021/08/13 08:58:01;;;;;;;7.87;7.33;;;25.80;99.90;;;;;;4897710;29;20514;-68
2021/08/13 09:00:28;;;;;;;9.07;8.20;;;25.80;99.90;;;;;;4911539;29;20490;-69
2021/08/13 09:02:55;;;;;;;8.80;8.03;;;25.80;99.90;;;;;;4915534;29;20462;-68
2021/08/13 09:05:22;;;;;;;7.70;7.20;;;25.60;99.90;;;;;;4918980;29;21022;-68
2021/08/13 09:07:49;;;;;;;7.10;6.60;;;25.70;99.90;;;;;;4919451;29;20554;-68
2021/08/13 09:10:17;;;;;;;7.80;7.10;;;25.70;99.90;;;;;;4918828;29;20472;-68
2021/08/13 09:12:44;;;;;;;7.43;6.83;;;25.80;99.90;;;;;;4918926;29;20473;-68
2021/08/13 09:15:29;;;;;;;7.97;7.37;;;25.90;99.90;;;;;;4919019;29;20474;-68
2021/08/13 09:18:14;;;;;;;8.20;7.60;;;25.90;99.90;;;;;;4918857;29;20454;-71
2021/08/13 09:20:42;;;;;;;7.83;7.33;;;26.00;99.90;;;;;;4919053;29;20505;-70
2021/08/13 09:23:09;;;;;;;7.80;7.10;;;26.10;99.90;;;;;;4918656;29;20489;-69
2021/08/13 09:25:37;;;;;;;8.37;7.60;;;26.10;99.90;;;;;;4919005;29;20467;-70
2021/08/13 09:28:05;;;;;;;8.40;7.60;;;26.20;99.90;;;;;;4901870;29;20491;-69
2021/08/13 09:30:31;;;;;;;8.67;8.10;;;26.30;99.90;;;;;;4900134;29;20490;-70
2021/08/13 09:33:00;;;;;;;9.40;8.47;;;26.40;99.90;;;;;;4899959;29;20483;-67
2021/08/13 09:35:32;;;;;;;8.90;8.20;;;26.40;99.90;;;;;;4899391;29;20543;-67
2021/08/13 09:38:00;;;;;;;8.40;7.70;;;26.30;99.90;;;;;;4909929;29;20466;-68
2021/08/13 09:40:27;;;;;;;8.27;7.77;;;26.30;99.90;;;;;;4918747;29;20542;-68
2021/08/13 09:43:03;;;;;;;7.90;7.40;;;26.40;99.90;;;;;;4919328;29;20470;-71
2021/08/13 09:45:30;;;;;;;8.20;7.70;;;26.30;99.90;;;;;;4918720;29;20472;-72
2021/08/13 09:47:56;;;;;;;7.97;7.43;;;26.40;99.90;;;;;;4919113;29;20493;-71
2021/08/13 09:50:35;;;;;;;8.37;7.73;;;26.30;99.90;;;;;;4919159;29;20494;-72
2021/08/13 09:53:10;;;;;;;7.40;6.90;;;26.40;99.90;;;;;;4918797;29;20521;-73
2021/08/13 09:55:36;;;;;;;8.93;7.80;;;26.50;99.90;;;;;;4918627;29;20493;-72
2021/08/13 09:58:07;;;;;;;8.90;8.20;;;26.70;99.90;;;;;;4918999;29;20466;-71
2021/08/13 10:00:44;;;;;;;8.10;7.57;;;26.70;99.90;;;;;;4918129;29;20526;-70
2021/08/13 10:03:11;;;;;;;7.93;7.40;;;26.70;99.90;;;;;;4918466;29;20622;-71
2021/08/13 10:05:38;;;;;;;7.20;6.70;;;26.80;99.90;;;;;;4910099;29;20922;-71
2021/08/13 10:08:07;;;;;;;7.47;7.13;;;26.70;99.90;;;;;;4899604;29;20492;-71
2021/08/13 10:10:35;;;;;;;7.97;7.47;;;26.60;99.90;;;;;;4914160;29;20490;-71
2021/08/13 10:13:02;;;;;;;7.73;7.13;;;26.70;99.90;;;;;;4918266;29;20527;-72
2021/08/13 10:15:35;;;;;;;8.80;8.20;;;26.80;99.90;;;;;;4917098;29;20460;-71
2021/08/13 10:18:05;;;;;;;9.13;7.47;;;26.80;99.90;;;;;;4918472;29;20467;-71
2021/08/13 10:20:34;;;;;;;8.37;7.70;;;26.90;99.90;;;;;;4917309;29;20491;-71
2021/08/13 10:23:01;;;;;;;8.47;7.87;;;26.90;99.90;;;;;;4899219;29;20538;-71
2021/08/13 10:25:28;;;;;;;9.00;8.33;;;26.90;99.90;;;;;;4898682;29;20465;-71
2021/08/13 10:27:55;;;;;;;8.83;8.23;;;27.00;99.90;;;;;;4899283;29;20492;-71
2021/08/13 10:30:23;;;;;;;8.60;8.00;;;26.90;99.90;;;;;;4898647;29;20567;-70
2021/08/13 10:32:56;;;;;;;8.37;7.57;;;27.00;99.90;;;;;;4898894;29;20476;-71
2021/08/13 10:35:24;;;;;;;7.57;6.97;;;26.90;99.90;;;;;;4904605;29;20982;-71
2021/08/13 10:37:51;;;;;;;7.90;7.40;;;27.00;99.90;;;;;;4918213;29;20463;-72
2021/08/13 10:40:19;;;;;;;7.97;7.37;;;27.10;99.90;;;;;;4917388;29;20494;-72
2021/08/13 10:42:47;;;;;;;7.80;7.10;;;27.20;99.90;;;;;;4918169;29;20543;-72
2021/08/13 10:45:21;;;;;;;7.60;7.10;;;27.30;99.90;;;;;;4918336;29;20830;-70
2021/08/13 10:47:57;;;;;;;8.03;7.33;;;27.30;99.90;;;;;;4917922;29;20998;-71
2021/08/13 10:50:24;;;;;;;8.43;7.83;;;27.30;99.90;;;;;;4916907;29;20523;-72
2021/08/13 10:52:51;;;;;;;8.70;8.10;;;27.50;99.90;;;;;;4916403;29;20521;-71
2021/08/13 10:55:40;;;;;;;8.43;7.77;;;27.40;99.90;;;;;;4906227;29;20573;-72
2021/08/13 10:58:07;;;;;;;9.00;8.17;;;27.30;99.90;;;;;;4916225;29;20896;-71
2021/08/13 11:01:03;;;;;;;7.70;7.10;;;27.40;99.90;;;;;;4917334;29;20895;-72
2021/08/13 11:03:31;;;;;;;7.80;7.30;;;27.50;99.90;;;;;;4917728;29;20469;-72
2021/08/13 11:05:59;;;;;;;8.40;7.70;;;27.50;99.90;;;;;;4917845;29;20470;-72
2021/08/13 11:08:59;;;;;;;8.33;7.80;;;27.60;99.90;;;;;;4917043;29;20493;-72
2021/08/13 11:11:26;;;;;;;8.10;7.60;;;27.60;99.90;;;;;;4917375;29;20494;-71
2021/08/13 11:13:53;;;;;;;8.23;7.53;;;27.60;99.90;;;;;;4917152;29;20478;-72
2021/08/13 11:16:37;;;;;;;10.20;7.97;;;27.60;99.90;;;;;;4917327;29;20459;-72
2021/08/13 11:19:09;;;;;;;8.10;7.57;;;27.60;99.90;;;;;;4916879;29;20527;-73
2021/08/13 11:21:38;;;;;;;7.57;7.10;;;27.70;99.90;;;;;;4917270;29;20583;-72
2021/08/13 11:24:06;;;;;;;8.70;7.77;;;27.80;99.90;;;;;;4916411;29;20476;-71
2021/08/13 11:27:08;;;;;;;8.67;8.07;;;27.70;99.90;;;;;;4911502;29;20486;-72
2021/08/13 11:29:39;;;;;;;8.50;7.80;;;27.80;99.90;;;;;;4912564;29;20521;-72
2021/08/13 11:32:09;;;;;;;8.13;7.53;;;27.90;99.90;;;;;;4916922;29;20483;-71
2021/08/13 11:34:44;;;;;;;7.97;7.27;;;27.90;99.90;;;;;;4916428;29;20453;-70
2021/08/13 11:37:33;;;;;;;7.93;7.33;;;27.80;99.90;;;;;;4916883;29;20469;-70
2021/08/13 11:40:01;;;;;;;9.20;8.57;;;27.80;99.90;;;;;;4916326;29;20467;-70
2021/08/13 11:42:31;;;;;;;8.63;8.10;;;27.70;99.90;;;;;;4916121;29;20489;-68
2021/08/13 11:44:58;;;;;;;7.33;6.90;;;27.70;99.90;;;;;;4916250;29;20570;-68
2021/08/13 11:47:25;;;;;;;7.90;7.30;;;28.00;99.90;;;;;;4916854;29;20552;-69
2021/08/13 11:49:54;;;;;;;7.87;7.33;;;28.10;99.90;;;;;;4916105;29;20543;-69
2021/08/13 11:52:22;;;;;;;8.90;8.10;;;28.20;99.90;;;;;;4916550;29;20514;-69
2021/08/13 11:54:50;;;;;;;7.93;7.30;;;28.30;99.90;;;;;;4916036;29;20575;-71
2021/08/13 11:57:18;;;;;;;10.30;8.03;;;28.40;99.90;;;;;;4916199;29;20466;-70
2021/08/13 11:59:45;;;;;;;7.93;7.20;;;28.30;99.90;;;;;;4916210;29;20482;-70
2021/08/13 12:02:12;;;;;;;7.70;7.20;;;28.30;99.90;;;;;;4915984;29;20565;-70
2021/08/13 12:04:39;;;;;;;8.60;7.90;;;28.30;99.90;;;;;;4916006;29;20590;-71
2021/08/13 12:07:09;;;;;;;8.30;7.67;;;28.20;99.90;;;;;;4897822;29;20502;-71
2021/08/13 12:09:37;;;;;;;7.57;6.93;;;28.20;99.90;;;;;;4896927;29;20570;-70
2021/08/13 12:12:04;;;;;;;8.20;7.70;;;28.20;99.90;;;;;;4897083;29;20500;-68
2021/08/13 12:14:32;;;;;;;9.23;8.63;;;28.30;99.90;;;;;;4913137;29;20466;-69
2021/08/13 12:16:59;;;;;;;7.60;7.10;;;28.30;99.90;;;;;;4916495;29;20525;-69
2021/08/13 12:19:26;;;;;;;7.90;7.40;;;28.30;99.90;;;;;;4915378;29;20966;-70
2021/08/13 12:21:54;;;;;;;8.33;7.83;;;28.30;99.90;;;;;;4916105;29;20489;-69
2021/08/13 12:24:34;;;;;;;8.60;7.90;;;28.40;99.90;;;;;;4914997;29;20966;-69
2021/08/13 12:27:06;;;;;;;8.77;8.17;;;28.60;99.90;;;;;;4916228;29;20468;-70
2021/08/13 12:29:33;;;;;;;7.90;7.40;;;28.60;99.90;;;;;;4915638;29;20547;-69
2021/08/13 12:32:01;;;;;;;9.00;8.33;;;28.60;99.90;;;;;;4915628;29;21065;-68
2021/08/13 12:34:30;;;;;;;8.83;8.13;;;28.40;99.90;;;;;;4915418;29;20471;-70
2021/08/13 12:37:02;;;;;;;8.73;8.23;;;28.40;99.90;;;;;;4913199;29;20473;-69
2021/08/13 12:39:29;;;;;;;7.93;7.43;;;28.40;99.90;;;;;;4905049;29;20497;-70
2021/08/13 12:41:58;;;;;;;9.63;8.93;;;28.30;99.90;;;;;;4912160;29;20497;-70
2021/08/13 12:44:24;;;;;;;7.70;7.23;;;28.40;99.90;;;;;;4907919;29;20542;-70
2021/08/13 12:46:52;;;;;;;7.37;7.00;;;28.40;99.90;;;;;;4903981;29;20808;-69
2021/08/13 12:49:19;;;;;;;8.10;7.60;;;28.40;99.90;;;;;;4914951;29;21087;-69
2021/08/13 12:51:46;;;;;;;7.60;6.90;;;28.40;99.90;;;;;;4912983;29;20564;-70
2021/08/13 12:54:33;;;;;;;8.60;8.00;;;28.40;99.90;;;;;;4903887;29;20459;-69
2021/08/13 12:57:03;;;;;;;9.00;8.30;;;28.20;99.90;;;;;;4914505;29;21012;-69
2021/08/13 12:59:35;;;;;;;8.80;8.20;;;28.30;99.90;;;;;;4913484;29;20463;-69
2021/08/13 13:02:02;;;;;;;7.83;7.33;;;28.30;99.90;;;;;;4896369;29;20559;-70
2021/08/13 13:04:39;;;;;;;8.30;7.63;;;28.20;99.90;;;;;;4910202;29;20523;-70
2021/08/13 13:07:06;;;;;;;8.90;8.30;;;28.00;99.90;;;;;;4915688;29;20875;-69
2021/08/13 13:09:34;;;;;;;9.27;8.57;;;27.90;99.90;;;;;;4915138;29;20489;-70
2021/08/13 13:12:18;;;;;;;8.30;7.70;;;27.80;99.90;;;;;;4915306;29;20503;-70
2021/08/13 13:14:46;;;;;;;8.37;7.77;;;27.90;99.90;;;;;;4913897;29;20588;-70
2021/08/13 13:17:14;;;;;;;10.13;9.33;;;27.80;99.90;;;;;;4915348;29;20467;-70
2021/08/13 13:19:42;;;;;;;8.53;8.03;;;27.80;99.90;;;;;;4914268;29;20539;-70
2021/08/13 13:22:19;;;;;;;8.63;7.50;;;27.60;99.90;;;;;;4913907;29;20853;-70
2021/08/13 13:24:47;;;;;;;9.43;7.87;;;27.50;99.90;;;;;;4905134;29;20980;-69
2021/08/13 13:27:15;;;;;;;10.07;9.30;;;27.40;99.90;;;;;;4913335;29;20580;-70
2021/08/13 13:29:45;;;;;;;8.60;8.00;;;27.40;99.90;;;;;;4915229;29;20498;-70
2021/08/13 13:32:13;;;;;;;9.10;8.23;;;27.40;99.90;;;;;;4914676;29;20483;-70
2021/08/13 13:34:40;;;;;;;9.30;8.60;;;27.50;99.90;;;;;;4911276;29;20890;-70
2021/08/13 13:37:15;;;;;;;10.17;9.20;;;27.60;99.90;;;;;;4914233;29;20541;-69
2021/08/13 13:39:42;;;;;;;8.37;7.80;;;27.70;99.90;;;;;;4913641;29;20491;-70
2021/08/13 13:42:09;;;;;;;10.77;9.67;;;27.80;99.90;;;;;;4913882;29;20574;-69
2021/08/13 13:44:37;;;;;;;8.93;8.23;;;27.90;99.90;;;;;;4913237;29;20508;-70
2021/08/13 13:47:05;;;;;;;9.03;8.33;;;28.00;99.90;;;;;;4914705;29;20470;-69
2021/08/13 13:49:31;;;;;;;8.70;8.00;;;28.10;99.90;;;;;;4914804;29;20496;-70
2021/08/13 13:51:59;;;;;;;9.70;9.07;;;28.20;99.90;;;;;;4914230;29;20610;-69
2021/08/13 13:54:26;;;;;;;9.33;8.50;;;28.20;99.90;;;;;;4903158;29;20468;-70
2021/08/13 13:56:52;;;;;;;9.53;8.90;;;28.10;99.90;;;;;;4914510;29;20496;-69
2021/08/13 13:59:19;;;;;;;9.30;8.50;;;28.00;99.90;;;;;;4904232;29;20483;-69
2021/08/13 14:01:47;;;;;;;8.90;8.10;;;27.90;99.90;;;;;;4900284;29;20497;-68
2021/08/13 14:04:14;;;;;;;9.43;8.83;;;27.90;99.90;;;;;;4916897;29;20535;-67
2021/08/13 14:06:40;;;;;;;8.70;8.10;;;27.90;99.90;;;;;;4911279;29;20491;-69
2021/08/13 14:09:07;;;;;;;10.13;9.40;;;28.00;99.90;;;;;;4916654;29;20491;-68
2021/08/13 14:11:33;;;;;;;9.50;8.57;;;28.10;99.90;;;;;;4916056;29;20501;-68
2021/08/13 14:14:01;;;;;;;9.50;8.70;;;28.10;99.90;;;;;;4917205;29;20524;-68
2021/08/13 14:16:28;;;;;;;9.20;8.40;;;28.10;99.90;;;;;;4911461;29;20479;-68
2021/08/13 14:18:55;;;;;;;9.23;8.30;;;28.20;99.90;;;;;;4916112;29;20945;-68
2021/08/13 14:21:22;;;;;;;9.03;8.20;;;28.20;99.90;;;;;;4909744;29;20488;-68
2021/08/13 14:23:49;;;;;;;9.37;8.50;;;28.00;99.90;;;;;;4911326;29;20876;-68
2021/08/13 14:26:15;;;;;;;9.27;8.50;;;27.80;99.90;;;;;;4918211;29;20475;-68
2021/08/13 14:28:42;;;;;;;9.07;8.40;;;27.70;99.90;;;;;;4913934;29;20484;-68
2021/08/13 14:31:09;;;;;;;8.83;8.17;;;27.70;99.90;;;;;;4899104;29;20823;-68
2021/08/13 14:33:35;;;;;;;8.97;8.37;;;27.90;99.90;;;;;;4908296;29;20835;-68
2021/08/13 14:36:03;;;;;;;9.80;9.10;;;28.00;99.90;;;;;;4917375;29;20601;-68
2021/08/13 14:38:30;;;;;;;8.13;7.63;;;28.00;99.90;;;;;;4917230;29;20527;-68
2021/08/13 14:40:57;;;;;;;9.37;8.57;;;27.90;99.90;;;;;;4910185;29;20497;-67
2021/08/13 14:43:23;;;;;;;9.10;8.50;;;27.90;99.90;;;;;;4905401;29;20944;-67
2021/08/13 14:45:50;;;;;;;8.90;8.20;;;27.90;99.90;;;;;;4917875;29;20468;-67
2021/08/13 14:48:16;;;;;;;9.23;8.43;;;27.80;99.90;;;;;;4917392;29;20476;-68
2021/08/13 14:50:43;;;;;;;10.00;9.13;;;27.80;99.90;;;;;;4917311;29;20494;-67
2021/08/13 14:53:11;;;;;;;8.30;7.70;;;27.70;99.90;;;;;;4914047;29;20479;-69
2021/08/13 14:55:38;;;;;;;9.37;8.47;;;27.60;99.90;;;;;;4907618;29;20527;-68
2021/08/13 14:58:06;;;;;;;9.53;8.63;;;27.60;99.90;;;;;;4917183;29;20474;-68
2021/08/13 15:00:33;;;;;;;8.00;7.33;;;27.50;99.90;;;;;;4911685;29;20578;-69
2021/08/13 15:03:02;;;;;;;7.90;7.20;;;27.50;99.90;;;;;;4913921;29;20971;-70
2021/08/13 15:05:28;;;;;;;8.23;7.57;;;27.60;99.90;;;;;;4906415;29;20469;-69
2021/08/13 15:07:56;;;;;;;8.93;8.23;;;27.60;99.90;;;;;;4915008;29;20538;-69
2021/08/13 15:10:24;;;;;;;9.90;8.90;;;27.60;99.90;;;;;;4916035;29;20517;-70
2021/08/13 15:12:51;;;;;;;8.40;7.60;;;27.70;99.90;;;;;;4912247;29;20525;-70
2021/08/13 15:15:17;;;;;;;9.07;8.40;;;27.80;99.90;;;;;;4913083;29;20459;-69
2021/08/13 15:17:44;;;;;;;9.03;8.40;;;27.80;99.90;;;;;;4916904;29;20519;-70
2021/08/13 15:20:11;;;;;;;8.80;8.20;;;27.80;99.90;;;;;;4915552;29;21007;-70
2021/08/13 15:22:38;;;;;;;9.60;8.90;;;27.60;99.90;;;;;;4915885;29;20519;-71
2021/08/13 15:25:05;;;;;;;9.30;8.60;;;27.50;99.90;;;;;;4916050;29;20467;-69
2021/08/13 15:27:33;;;;;;;8.10;7.60;;;27.40;99.90;;;;;;4913205;29;20485;-70
2021/08/13 15:30:00;;;;;;;9.90;8.83;;;27.40;99.90;;;;;;4916013;29;20534;-70
2021/08/13 15:32:26;;;;;;;8.40;7.80;;;27.30;99.90;;;;;;4916350;29;20596;-71
2021/08/13 15:34:53;;;;;;;12.17;11.10;;;27.30;99.90;;;;;;4915800;29;20463;-70
2021/08/13 15:37:20;;;;;;;9.20;8.60;;;27.10;99.90;;;;;;4917159;29;20521;-68
2021/08/13 15:39:48;;;;;;;9.20;8.50;;;27.00;99.90;;;;;;4902922;29;20611;-68
2021/08/13 15:42:14;;;;;;;9.53;8.93;;;27.00;99.90;;;;;;4916255;29;20494;-69
2021/08/13 15:44:42;;;;;;;9.73;9.03;;;27.00;99.90;;;;;;4903120;29;20474;-68
2021/08/13 15:47:09;;;;;;;10.20;9.40;;;26.90;99.90;;;;;;4916809;29;20466;-69
2021/08/13 15:49:36;;;;;;;8.80;8.13;;;26.80;99.90;;;;;;4915098;29;20541;-69
2021/08/13 15:52:03;;;;;;;10.27;9.33;;;26.80;99.90;;;;;;4915844;29;20574;-73
2021/08/13 15:54:29;;;;;;;9.60;8.80;;;26.70;99.90;;;;;;4914443;29;20541;-68
2021/08/13 15:56:56;;;;;;;11.13;8.70;;;26.70;99.90;;;;;;4916323;29;20489;-70
2021/08/13 15:59:23;;;;;;;9.63;8.90;;;26.60;99.90;;;;;;4913340;29;20463;-69
2021/08/13 16:01:51;;;;;;;9.40;8.60;;;26.60;99.90;;;;;;4908377;29;20494;-69
2021/08/13 16:04:17;;;;;;;9.53;8.80;;;26.60;99.90;;;;;;4897484;29;20464;-70
2021/08/13 16:06:45;;;;;;;9.60;9.00;;;26.50;99.90;;;;;;4904937;29;20931;-70
2021/08/13 16:09:11;;;;;;;9.40;8.80;;;26.50;99.90;;;;;;4913469;29;20482;-71
2021/08/13 16:11:39;;;;;;;10.17;9.47;;;26.50;99.90;;;;;;4911192;29;20479;-70
2021/08/13 16:14:08;;;;;;;10.17;9.30;;;26.40;99.90;;;;;;4914488;29;20501;-71
2021/08/13 16:16:35;;;;;;;13.23;10.63;;;26.30;99.90;;;;;;4907644;29;20514;-71
2021/08/13 16:19:03;;;;;;;9.07;8.47;;;26.20;99.90;;;;;;4900523;29;20523;-71
2021/08/13 16:21:29;;;;;;;9.20;8.40;;;26.10;99.90;;;;;;4906076;29;20514;-71
2021/08/13 16:23:56;;;;;;;8.40;7.83;;;26.00;99.90;;;;;;4909744;29;20463;-70
2021/08/13 16:26:22;;;;;;;6.87;6.47;;;26.00;99.90;;;;;;4915717;29;20465;-71
2021/08/13 16:28:49;;;;;;;7.00;6.50;;;25.90;99.90;;;;;;4914809;29;20475;-71
2021/08/13 16:31:17;;;;;;;7.23;6.60;;;25.90;99.90;;;;;;4916296;29;20494;-71
2021/08/13 16:33:44;;;;;;;6.63;6.23;;;25.80;99.90;;;;;;4910911;29;20463;-71
2021/08/13 16:36:11;;;;;;;5.63;5.43;;;25.80;99.90;;;;;;4904502;29;20959;-71
2021/08/13 16:38:38;;;;;;;6.13;5.63;;;25.80;99.90;;;;;;4912328;29;20468;-70
2021/08/13 16:41:05;;;;;;;5.73;5.40;;;25.70;99.90;;;;;;4904665;29;20525;-69
2021/08/13 16:43:32;;;;;;;6.10;5.60;;;25.70;99.90;;;;;;4914332;29;20466;-70
2021/08/13 16:45:59;;;;;;;6.57;6.17;;;25.70;99.90;;;;;;4915847;29;20518;-71
2021/08/13 16:48:25;;;;;;;5.87;5.57;;;25.70;99.90;;;;;;4915220;29;20477;-70